Des Moines, Iowa
Current Conditions -  °F | °C
As of 9:54 AM on Thursday 27 Nov 2014 (Local Time) from KDSM Reporting Station
Few Clouds Few Clouds  
Wind Chill: -6°   Ceiling: Unl
Heat Index:   Visibility: 10mi
Dew Point: -3°   Wind: 8mph
Humidity: 64%   Direction: 280°W
Pressure: 30.55"   Gusts: NA
Location:  41.59°N, 93.61°W
Report Text: KDSM 271554Z 28007KT 10SM FEW080 FEW250 M14/M19 A3055 RMK AO2 SLP363 T11391194
Loading
Personal Weather Stations






























Interactive Weather Map New forecast layout! Learn more

10-Day Weather Forecast

Advertisements
Track Severe Weather on mobile